Time;durP1;ratioP1;P1;durP2;ratioP2;P2;SDS_P1;SDS_P2;PMS_P1;PMS_P2;Temp;Humidity;BMP_temperature;BMP_pressure;BME280_temperature;BME280_humidity;BME280_pressure;Samples;Min_cycle;Max_cycle;Signal;HPM_P1;HPM_P2
2022/01/30 00:00:38;;;;;;;23.65;5.03;;;;;;;;;;5051329;28;20036;-90
2022/01/30 00:03:04;;;;;;;27.77;5.60;;;;;;;;;;5070302;28;20043;-86
2022/01/30 00:05:31;;;;;;;25.27;5.47;;;;;;;;;;5058782;28;20127;-89
2022/01/30 00:07:57;;;;;;;21.63;5.10;;;;;;;;;;5092413;28;20032;-89
2022/01/30 00:10:23;;;;;;;22.20;4.95;;;;;;;;;;5058564;28;20040;-89
2022/01/30 00:12:54;;;;;;;20.88;4.40;;;;;;;;;;5092461;28;20044;-94
2022/01/30 00:15:34;;;;;;;19.63;4.72;;;;;;;;;;5059503;28;20040;-87
2022/01/30 00:18:12;;;;;;;19.88;4.85;;;;;;;;;;5109123;28;20044;-91
2022/01/30 00:20:41;;;;;;;25.10;5.00;;;;;;;;;;5076311;28;20048;-90
2022/01/30 00:23:13;;;;;;;21.15;6.47;;;;;;;;;;5092108;28;20495;-89
2022/01/30 00:25:58;;;;;;;23.63;5.38;;;;;;;;;;5108149;28;20042;-88
2022/01/30 00:28:26;;;;;;;23.80;5.28;;;;;;;;;;5092481;28;20036;-87
2022/01/30 00:30:53;;;;;;;26.23;5.65;;;;;;;;;;5091271;28;20039;-88
2022/01/30 00:33:19;;;;;;;23.15;6.35;;;;;;;;;;5057660;28;20040;-89
2022/01/30 00:35:45;;;;;;;23.77;5.75;;;;;;;;;;5074056;28;20499;-89
2022/01/30 00:38:16;;;;;;;21.02;4.78;;;;;;;;;;5107772;28;20303;-92
2022/01/30 00:40:43;;;;;;;20.55;5.25;;;;;;;;;;5091053;28;20096;-87
2022/01/30 00:43:10;;;;;;;19.98;5.45;;;;;;;;;;5074615;28;20359;-89
2022/01/30 00:45:36;;;;;;;22.40;5.20;;;;;;;;;;5108155;28;20399;-86
2022/01/30 00:48:03;;;;;;;21.30;5.38;;;;;;;;;;5058860;28;20483;-90
2022/01/30 00:50:29;;;;;;;20.90;4.47;;;;;;;;;;5109309;28;20055;-91
2022/01/30 00:52:55;;;;;;;24.67;4.68;;;;;;;;;;5091568;28;20499;-92
2022/01/30 00:55:22;;;;;;;16.00;3.88;;;;;;;;;;5093244;28;20499;-89
2022/01/30 00:57:49;;;;;;;23.10;4.45;;;;;;;;;;5075962;28;20039;-91
2022/01/30 01:00:15;;;;;;;16.85;4.28;;;;;;;;;;5058302;28;20044;-91
2022/01/30 01:02:42;;;;;;;21.48;5.65;;;;;;;;;;5108347;28;20040;-88
2022/01/30 01:05:09;;;;;;;19.70;4.30;;;;;;;;;;5073812;28;20074;-90
2022/01/30 01:07:39;;;;;;;20.17;4.30;;;;;;;;;;5057488;28;20263;-89
2022/01/30 01:10:45;;;;;;;19.52;4.22;;;;;;;;;;5090945;28;20376;-89
2022/01/30 01:23:49;;;;;;;22.88;5.05;;;;;;;;;;5073394;28;20036;-93
2022/01/30 01:26:16;;;;;;;18.15;4.80;;;;;;;;;;5056948;28;20384;-88
2022/01/30 01:28:42;;;;;;;18.30;4.18;;;;;;;;;;5056224;28;20533;-86
2022/01/30 01:31:08;;;;;;;24.70;5.38;;;;;;;;;;5076371;28;20049;-87
2022/01/30 01:36:22;;;;;;;19.70;4.78;;;;;;;;;;5043134;28;20050;-91
2022/01/30 01:38:48;;;;;;;19.75;5.07;;;;;;;;;;5108255;28;20090;-93
2022/01/30 01:41:18;;;;;;;24.92;5.13;;;;;;;;;;5074564;28;20585;-92
2022/01/30 01:43:44;;;;;;;24.50;5.65;;;;;;;;;;5059828;28;20067;-89
2022/01/30 01:46:17;;;;;;;30.15;5.68;;;;;;;;;;5092131;28;20047;-89
2022/01/30 01:48:45;;;;;;;22.85;5.57;;;;;;;;;;5092148;28;20083;-91
2022/01/30 01:51:17;;;;;;;25.42;6.00;;;;;;;;;;5090166;28;20093;-87
2022/01/30 01:53:44;;;;;;;21.42;6.63;;;;;;;;;;5091490;28;20040;-92
2022/01/30 01:56:10;;;;;;;21.60;4.55;;;;;;;;;;5091552;28;20071;-89
2022/01/30 01:58:36;;;;;;;21.63;5.55;;;;;;;;;;5107854;28;20092;-89
2022/01/30 02:01:03;;;;;;;23.92;5.40;;;;;;;;;;5056747;28;20040;-90
2022/01/30 02:03:29;;;;;;;22.63;5.30;;;;;;;;;;5053673;28;20048;-91
2022/01/30 02:06:00;;;;;;;22.75;5.72;;;;;;;;;;5064266;28;20044;-89
2022/01/30 02:14:43;;;;;;;26.52;6.97;;;;;;;;;;5052319;28;20048;-89
2022/01/30 02:25:19;;;;;;;26.02;7.05;;;;;;;;;;5072713;28;20568;-87
2022/01/30 02:27:46;;;;;;;28.25;6.57;;;;;;;;;;5058543;28;20119;-90
2022/01/30 02:30:15;;;;;;;25.88;5.47;;;;;;;;;;5090445;28;20059;-91
2022/01/30 02:32:42;;;;;;;26.95;6.03;;;;;;;;;;5055588;28;20044;-89
2022/01/30 02:35:08;;;;;;;28.02;6.00;;;;;;;;;;5107056;28;20035;-89
2022/01/30 02:37:35;;;;;;;26.08;6.13;;;;;;;;;;5090004;28;20036;-86
2022/01/30 02:40:04;;;;;;;31.10;6.85;;;;;;;;;;5055704;28;20417;-92
2022/01/30 02:42:33;;;;;;;28.08;5.60;;;;;;;;;;5091119;28;20484;-88
2022/01/30 02:45:03;;;;;;;27.75;6.32;;;;;;;;;;5107447;28;20051;-87
2022/01/30 02:50:22;;;;;;;26.90;6.82;;;;;;;;;;5072271;28;20044;-87
2022/01/30 02:52:55;;;;;;;26.33;6.72;;;;;;;;;;5085827;28;20045;-87
2022/01/30 02:55:21;;;;;;;22.83;6.28;;;;;;;;;;5095051;28;20072;-89
2022/01/30 02:57:47;;;;;;;21.08;5.25;;;;;;;;;;5071156;28;20491;-89
2022/01/30 03:00:14;;;;;;;27.42;6.38;;;;;;;;;;5105378;28;20059;-89
2022/01/30 03:02:40;;;;;;;20.55;6.03;;;;;;;;;;5105420;28;20119;-91
2022/01/30 03:05:06;;;;;;;26.95;6.22;;;;;;;;;;5072718;28;20039;-87
2022/01/30 03:07:33;;;;;;;26.42;7.20;;;;;;;;;;5056847;28;20391;-87
2022/01/30 03:09:59;;;;;;;28.25;7.15;;;;;;;;;;5089645;28;20571;-88
2022/01/30 03:12:25;;;;;;;27.17;6.80;;;;;;;;;;5058146;28;20040;-89
2022/01/30 03:14:51;;;;;;;25.88;6.72;;;;;;;;;;5106469;28;20036;-90
2022/01/30 03:17:18;;;;;;;28.67;6.63;;;;;;;;;;5055278;28;20036;-91
2022/01/30 03:19:44;;;;;;;28.63;6.70;;;;;;;;;;5108287;28;20396;-89
2022/01/30 03:22:11;;;;;;;29.50;7.22;;;;;;;;;;5094577;28;20446;-93
2022/01/30 03:24:37;;;;;;;30.33;7.43;;;;;;;;;;5090832;28;20032;-88
2022/01/30 03:27:10;;;;;;;36.95;8.18;;;;;;;;;;5074207;28;20122;-91
2022/01/30 03:29:38;;;;;;;28.83;6.22;;;;;;;;;;5107155;28;20044;-91
2022/01/30 03:32:04;;;;;;;30.23;7.00;;;;;;;;;;5106940;28;20044;-93
2022/01/30 03:34:30;;;;;;;30.65;7.00;;;;;;;;;;5056878;28;20049;-87
2022/01/30 03:36:56;;;;;;;30.90;6.65;;;;;;;;;;5109971;28;20036;-86
2022/01/30 03:39:23;;;;;;;29.48;7.32;;;;;;;;;;5094448;28;20039;-91
2022/01/30 03:41:52;;;;;;;22.00;5.97;;;;;;;;;;5110865;28;20043;-89
2022/01/30 03:44:18;;;;;;;29.10;6.47;;;;;;;;;;5075919;28;20109;-89
2022/01/30 03:46:44;;;;;;;22.90;5.47;;;;;;;;;;5059939;28;20042;-88
2022/01/30 03:49:11;;;;;;;28.05;5.70;;;;;;;;;;5093209;28;20040;-87
2022/01/30 03:51:37;;;;;;;34.25;6.75;;;;;;;;;;5111507;28;20050;-92
2022/01/30 03:54:03;;;;;;;30.05;7.53;;;;;;;;;;5094921;28;20531;-90
2022/01/30 03:56:29;;;;;;;28.85;7.38;;;;;;;;;;5078157;28;20491;-93
2022/01/30 03:58:55;;;;;;;26.73;7.22;;;;;;;;;;5062523;28;20044;-89
2022/01/30 04:01:22;;;;;;;36.40;8.45;;;;;;;;;;5058586;28;20507;-86
2022/01/30 04:03:48;;;;;;;24.42;6.20;;;;;;;;;;5111618;28;20192;-91
2022/01/30 04:06:14;;;;;;;31.00;7.28;;;;;;;;;;5078770;28;20047;-91
2022/01/30 04:08:41;;;;;;;28.77;7.32;;;;;;;;;;5077396;28;20491;-90
2022/01/30 04:11:07;;;;;;;28.75;6.35;;;;;;;;;;5061074;28;20062;-83
2022/01/30 04:13:33;;;;;;;32.58;7.85;;;;;;;;;;5075252;28;20378;-86
2022/01/30 04:15:59;;;;;;;31.00;7.15;;;;;;;;;;5060014;28;20419;-90
2022/01/30 04:18:26;;;;;;;27.58;6.97;;;;;;;;;;5109835;28;20609;-92
2022/01/30 04:20:52;;;;;;;31.48;7.60;;;;;;;;;;5075684;28;20043;-87
2022/01/30 04:23:19;;;;;;;30.85;7.10;;;;;;;;;;5059947;28;20472;-88
2022/01/30 04:25:46;;;;;;;30.20;7.47;;;;;;;;;;5093014;28;20040;-86
2022/01/30 04:28:12;;;;;;;37.92;8.35;;;;;;;;;;5075878;28;20072;-91
2022/01/30 04:30:38;;;;;;;37.80;8.48;;;;;;;;;;5076195;28;20040;-85
2022/01/30 04:33:05;;;;;;;35.10;8.45;;;;;;;;;;5089725;28;20066;-88
2022/01/30 04:35:31;;;;;;;35.22;7.50;;;;;;;;;;5073184;28;20427;-92
2022/01/30 04:56:58;;;;;;;37.28;8.10;;;;;;;;;;5089838;28;20071;-89
2022/01/30 05:02:07;;;;;;;32.78;7.93;;;;;;;;;;5110780;28;20154;-91
2022/01/30 05:07:35;;;;;;;32.50;7.47;;;;;;;;;;5042694;28;20048;-94
2022/01/30 05:10:01;;;;;;;36.65;10.43;;;;;;;;;;5073167;28;20032;-94
2022/01/30 05:12:34;;;;;;;40.97;8.70;;;;;;;;;;5090886;28;20530;-89
2022/01/30 05:15:01;;;;;;;31.95;8.20;;;;;;;;;;5106693;28;20051;-86
2022/01/30 05:17:27;;;;;;;37.15;9.98;;;;;;;;;;5074079;28;20388;-84
2022/01/30 05:19:54;;;;;;;33.40;9.85;;;;;;;;;;5090017;28;20060;-87
2022/01/30 05:22:20;;;;;;;36.75;9.88;;;;;;;;;;5094091;28;20519;-87
2022/01/30 05:24:46;;;;;;;38.75;9.48;;;;;;;;;;5090868;28;20036;-90
2022/01/30 05:27:12;;;;;;;36.47;8.25;;;;;;;;;;5057655;28;20130;-88
2022/01/30 05:29:39;;;;;;;34.22;8.95;;;;;;;;;;5072687;28;20388;-93
2022/01/30 05:32:05;;;;;;;29.75;8.60;;;;;;;;;;5068197;28;20036;-87
2022/01/30 05:34:31;;;;;;;31.10;8.93;;;;;;;;;;5106376;28;20167;-87
2022/01/30 05:36:58;;;;;;;33.42;8.38;;;;;;;;;;5111126;28;20036;-90
2022/01/30 05:39:25;;;;;;;34.55;7.75;;;;;;;;;;5109421;28;20044;-88
2022/01/30 05:41:51;;;;;;;31.27;7.60;;;;;;;;;;5110391;28;20405;-93
2022/01/30 05:44:21;;;;;;;29.90;8.02;;;;;;;;;;5110718;28;20527;-93
2022/01/30 05:46:53;;;;;;;33.13;7.70;;;;;;;;;;5092463;28;20522;-93
2022/01/30 05:49:20;;;;;;;35.92;8.55;;;;;;;;;;5093858;28;20037;-88
2022/01/30 05:51:46;;;;;;;37.40;9.02;;;;;;;;;;5110202;28;20134;-91
2022/01/30 05:54:13;;;;;;;37.15;9.50;;;;;;;;;;5111362;28;20189;-93
2022/01/30 05:56:39;;;;;;;33.75;8.40;;;;;;;;;;5112491;28;20036;-93
2022/01/30 05:59:05;;;;;;;35.53;9.43;;;;;;;;;;5089835;28;20101;-87
2022/01/30 06:01:31;;;;;;;33.25;8.65;;;;;;;;;;5109762;28;20048;-93
2022/01/30 06:03:58;;;;;;;38.80;9.30;;;;;;;;;;5105403;28;20042;-88
2022/01/30 06:06:24;;;;;;;49.42;10.55;;;;;;;;;;5106675;28;20138;-87
2022/01/30 06:09:12;;;;;;;44.13;10.18;;;;;;;;;;5090466;28;20118;-91
2022/01/30 06:11:39;;;;;;;34.22;8.00;;;;;;;;;;5087731;28;20400;-87
2022/01/30 06:14:05;;;;;;;30.35;7.57;;;;;;;;;;5106250;28;20040;-86
2022/01/30 06:16:31;;;;;;;31.23;8.00;;;;;;;;;;5107593;28;20255;-91
2022/01/30 06:18:57;;;;;;;41.42;8.82;;;;;;;;;;5089499;28;20048;-88
2022/01/30 06:21:24;;;;;;;37.40;8.48;;;;;;;;;;5107012;28;20123;-86
2022/01/30 06:23:50;;;;;;;32.67;7.82;;;;;;;;;;5107427;28;20043;-90
2022/01/30 06:26:23;;;;;;;30.80;8.80;;;;;;;;;;5090743;28;20032;-91
2022/01/30 06:28:49;;;;;;;38.63;9.43;;;;;;;;;;5107291;28;20122;-89
2022/01/30 06:31:15;;;;;;;40.35;9.30;;;;;;;;;;5124694;27;20036;-90
2022/01/30 06:33:41;;;;;;;34.03;8.52;;;;;;;;;;5105198;28;20047;-91
2022/01/30 06:36:07;;;;;;;34.78;9.57;;;;;;;;;;5084627;28;20487;-88
2022/01/30 06:38:34;;;;;;;36.17;8.90;;;;;;;;;;5124605;27;20044;-91
2022/01/30 06:41:00;;;;;;;37.25;9.32;;;;;;;;;;5073743;28;20370;-89
2022/01/30 06:43:26;;;;;;;32.10;8.77;;;;;;;;;;5107549;28;20036;-89
2022/01/30 06:45:52;;;;;;;38.50;9.57;;;;;;;;;;5106043;28;20122;-89
2022/01/30 06:48:19;;;;;;;31.05;8.70;;;;;;;;;;5123823;27;20311;-89
2022/01/30 06:50:46;;;;;;;45.42;10.55;;;;;;;;;;5090182;28;20119;-85
2022/01/30 06:53:12;;;;;;;36.83;9.82;;;;;;;;;;5108180;28;20039;-90
2022/01/30 06:55:42;;;;;;;37.72;9.27;;;;;;;;;;5106792;28;20100;-88
2022/01/30 06:58:09;;;;;;;37.78;9.02;;;;;;;;;;5089750;28;20052;-87
2022/01/30 07:00:35;;;;;;;41.10;10.00;;;;;;;;;;5124269;27;20098;-91
2022/01/30 07:03:01;;;;;;;31.13;7.68;;;;;;;;;;5089875;28;20126;-88
2022/01/30 07:05:28;;;;;;;33.88;8.10;;;;;;;;;;5089223;28;20032;-89
2022/01/30 07:07:54;;;;;;;29.02;9.23;;;;;;;;;;5105415;28;20123;-91
2022/01/30 07:10:20;;;;;;;31.23;7.95;;;;;;;;;;5105261;28;20036;-93
2022/01/30 07:12:47;;;;;;;28.55;7.35;;;;;;;;;;5122838;27;20125;-91
2022/01/30 07:15:14;;;;;;;38.58;8.38;;;;;;;;;;5071637;28;20263;-87
2022/01/30 07:17:40;;;;;;;33.60;8.30;;;;;;;;;;5106595;28;20404;-87
2022/01/30 07:20:07;;;;;;;35.30;8.70;;;;;;;;;;5093264;28;20102;-90
2022/01/30 07:22:34;;;;;;;42.65;9.27;;;;;;;;;;5054541;28;20439;-84
2022/01/30 07:25:00;;;;;;;29.98;8.45;;;;;;;;;;5086060;28;20083;-86
2022/01/30 07:27:26;;;;;;;36.58;8.82;;;;;;;;;;5087652;28;20044;-87
2022/01/30 07:29:52;;;;;;;36.40;9.35;;;;;;;;;;5105246;28;20040;-88
2022/01/30 07:32:18;;;;;;;44.47;10.35;;;;;;;;;;5071809;28;20048;-88
2022/01/30 07:34:45;;;;;;;43.35;9.30;;;;;;;;;;5071209;28;20036;-87
2022/01/30 07:37:12;;;;;;;38.63;9.40;;;;;;;;;;5071524;28;20575;-86
2022/01/30 07:39:39;;;;;;;34.60;9.10;;;;;;;;;;5088040;28;20097;-93
2022/01/30 07:42:05;;;;;;;34.92;7.63;;;;;;;;;;5088420;28;20048;-90
2022/01/30 07:44:31;;;;;;;34.83;9.50;;;;;;;;;;5035108;28;20074;-89
2022/01/30 07:46:57;;;;;;;30.30;7.70;;;;;;;;;;5065577;28;20111;-87
2022/01/30 07:49:24;;;;;;;30.88;8.10;;;;;;;;;;5105433;28;20128;-87
2022/01/30 07:51:50;;;;;;;34.95;9.05;;;;;;;;;;5071025;28;20079;-88
2022/01/30 07:54:16;;;;;;;31.45;7.25;;;;;;;;;;5089099;28;20488;-88
2022/01/30 07:56:42;;;;;;;33.13;7.93;;;;;;;;;;5071105;28;20044;-85
2022/01/30 07:59:09;;;;;;;28.63;7.47;;;;;;;;;;5055034;28;20210;-85
2022/01/30 08:01:35;;;;;;;29.13;7.45;;;;;;;;;;5071790;28;20068;-87
2022/01/30 08:04:01;;;;;;;33.17;7.30;;;;;;;;;;5087663;28;20044;-84
2022/01/30 08:06:27;;;;;;;26.98;7.50;;;;;;;;;;5056975;28;20060;-87
2022/01/30 08:08:54;;;;;;;23.55;6.15;;;;;;;;;;5110800;28;20544;-86
2022/01/30 08:11:20;;;;;;;30.23;7.07;;;;;;;;;;5076629;28;20048;-82
2022/01/30 08:13:46;;;;;;;31.67;7.78;;;;;;;;;;5079768;28;20036;-91
2022/01/30 08:16:12;;;;;;;31.85;7.40;;;;;;;;;;5081104;28;20141;-88
2022/01/30 08:18:39;;;;;;;28.08;6.80;;;;;;;;;;5069983;28;20098;-90
2022/01/30 08:21:05;;;;;;;29.48;8.73;;;;;;;;;;5081495;28;20047;-89
2022/01/30 08:23:33;;;;;;;24.23;6.35;;;;;;;;;;5076975;28;20050;-93
2022/01/30 08:26:00;;;;;;;33.83;7.55;;;;;;;;;;5064409;28;20421;-88
2022/01/30 08:28:27;;;;;;;29.52;7.28;;;;;;;;;;5072153;28;20491;-87
2022/01/30 08:30:53;;;;;;;37.00;8.52;;;;;;;;;;5073083;28;20036;-87
2022/01/30 08:33:19;;;;;;;31.42;7.22;;;;;;;;;;5069771;28;20036;-87
2022/01/30 08:35:46;;;;;;;29.75;7.88;;;;;;;;;;5066425;28;20455;-89
2022/01/30 08:38:15;;;;;;;30.23;7.63;;;;;;;;;;5104052;27;20457;-90
2022/01/30 08:40:42;;;;;;;31.30;7.53;;;;;;;;;;5074740;28;20084;-90
2022/01/30 08:43:08;;;;;;;31.35;8.32;;;;;;;;;;5074251;28;20445;-91
2022/01/30 08:45:34;;;;;;;31.02;7.82;;;;;;;;;;5061427;28;20035;-86
2022/01/30 08:48:00;;;;;;;29.98;6.90;;;;;;;;;;5079474;28;20036;-88
2022/01/30 08:50:26;;;;;;;32.38;7.85;;;;;;;;;;5079149;28;20032;-91
2022/01/30 08:52:53;;;;;;;36.15;9.35;;;;;;;;;;5063316;28;20123;-89
2022/01/30 08:55:19;;;;;;;38.35;8.48;;;;;;;;;;5059527;28;20040;-90
2022/01/30 08:57:46;;;;;;;27.83;7.38;;;;;;;;;;5100201;28;20498;-88
2022/01/30 09:00:13;;;;;;;33.75;9.85;;;;;;;;;;5077751;28;20328;-88
2022/01/30 09:02:40;;;;;;;29.08;8.45;;;;;;;;;;5077696;28;20039;-94
2022/01/30 09:05:07;;;;;;;32.45;8.23;;;;;;;;;;5088902;28;20040;-91
2022/01/30 09:07:33;;;;;;;29.25;8.00;;;;;;;;;;5086600;28;20074;-89
2022/01/30 09:10:00;;;;;;;30.77;8.43;;;;;;;;;;5076690;28;20043;-95
2022/01/30 09:12:26;;;;;;;28.00;6.93;;;;;;;;;;5057240;28;20054;-94
2022/01/30 09:14:53;;;;;;;29.40;8.82;;;;;;;;;;5065552;28;20040;-90
2022/01/30 09:17:20;;;;;;;35.80;9.07;;;;;;;;;;5110166;28;20055;-94
2022/01/30 09:19:47;;;;;;;33.38;8.00;;;;;;;;;;5091647;28;20138;-94
2022/01/30 09:22:14;;;;;;;30.80;7.47;;;;;;;;;;5057546;28;20474;-91
2022/01/30 09:24:41;;;;;;;28.08;8.23;;;;;;;;;;5076865;28;20048;-93
2022/01/30 09:27:07;;;;;;;32.67;8.30;;;;;;;;;;5108287;28;20119;-94
2022/01/30 09:29:34;;;;;;;35.92;7.72;;;;;;;;;;5074165;28;20037;-89
2022/01/30 09:32:01;;;;;;;33.15;8.77;;;;;;;;;;5074963;28;20126;-93
2022/01/30 09:34:27;;;;;;;40.42;8.80;;;;;;;;;;5075638;28;20036;-88
2022/01/30 09:37:00;;;;;;;29.50;8.45;;;;;;;;;;5066510;28;20044;-93
2022/01/30 09:39:26;;;;;;;43.20;9.05;;;;;;;;;;5054337;28;20036;-93
2022/01/30 09:41:53;;;;;;;29.48;7.25;;;;;;;;;;5062354;28;20035;-92
2022/01/30 09:44:21;;;;;;;30.13;7.30;;;;;;;;;;5079472;28;20131;-89
2022/01/30 09:46:47;;;;;;;27.88;7.70;;;;;;;;;;5108210;28;20531;-89
2022/01/30 09:49:14;;;;;;;30.85;7.25;;;;;;;;;;5073573;28;20077;-93
2022/01/30 09:51:43;;;;;;;33.22;7.60;;;;;;;;;;5089989;28;20048;-87
2022/01/30 09:54:10;;;;;;;31.52;7.03;;;;;;;;;;5054960;28;20512;-90
2022/01/30 09:56:36;;;;;;;27.77;6.93;;;;;;;;;;5100361;28;20043;-86
2022/01/30 09:59:04;;;;;;;31.80;7.78;;;;;;;;;;5058175;28;20093;-90
2022/01/30 10:01:33;;;;;;;26.90;7.82;;;;;;;;;;5057809;28;20513;-90
2022/01/30 10:03:59;;;;;;;29.52;6.95;;;;;;;;;;5058164;28;20468;-85
2022/01/30 10:06:31;;;;;;;27.42;6.85;;;;;;;;;;5073827;28;20075;-92
2022/01/30 10:08:59;;;;;;;32.80;7.43;;;;;;;;;;5093040;28;20035;-87
2022/01/30 10:11:46;;;;;;;30.77;7.82;;;;;;;;;;5091440;28;20044;-91
2022/01/30 10:14:16;;;;;;;32.47;7.03;;;;;;;;;;5088801;28;20035;-92
2022/01/30 10:16:46;;;;;;;31.17;6.95;;;;;;;;;;5084641;28;20136;-90
2022/01/30 10:19:17;;;;;;;28.05;8.75;;;;;;;;;;5081657;28;20060;-90
2022/01/30 10:21:44;;;;;;;26.45;7.20;;;;;;;;;;5069006;28;20449;-91
2022/01/30 10:24:22;;;;;;;28.80;6.97;;;;;;;;;;5060685;28;20486;-88
2022/01/30 10:26:49;;;;;;;37.22;7.63;;;;;;;;;;5091024;28;20110;-90
2022/01/30 10:29:22;;;;;;;29.83;8.05;;;;;;;;;;5066551;28;20585;-93
2022/01/30 10:32:02;;;;;;;27.88;7.40;;;;;;;;;;5080567;28;20173;-91
2022/01/30 10:34:28;;;;;;;29.88;7.55;;;;;;;;;;5078328;28;20040;-88
2022/01/30 10:37:13;;;;;;;23.95;6.65;;;;;;;;;;5082229;28;20625;-90
2022/01/30 10:39:55;;;;;;;28.23;7.43;;;;;;;;;;5058195;28;20125;-92
2022/01/30 10:42:30;;;;;;;29.63;9.32;;;;;;;;;;5072421;28;20376;-91
2022/01/30 10:44:56;;;;;;;46.95;9.23;;;;;;;;;;5088321;28;20059;-87
2022/01/30 10:47:23;;;;;;;31.42;8.25;;;;;;;;;;5061462;28;20042;-88
2022/01/30 10:49:49;;;;;;;28.08;8.32;;;;;;;;;;5088016;28;20032;-89
2022/01/30 10:52:16;;;;;;;33.40;8.65;;;;;;;;;;5081454;28;20036;-91
2022/01/30 10:54:42;;;;;;;29.80;8.07;;;;;;;;;;5062221;28;20493;-89
2022/01/30 10:57:09;;;;;;;29.45;7.15;;;;;;;;;;5082672;28;20043;-88
2022/01/30 10:59:43;;;;;;;34.30;8.93;;;;;;;;;;5077791;28;20452;-85
2022/01/30 11:02:22;;;;;;;30.38;8.68;;;;;;;;;;5081604;28;20078;-91
2022/01/30 11:04:49;;;;;;;35.28;8.77;;;;;;;;;;5061463;28;20540;-89
2022/01/30 11:07:19;;;;;;;29.40;7.68;;;;;;;;;;5065983;28;20043;-90
2022/01/30 11:09:57;;;;;;;28.20;8.43;;;;;;;;;;5072544;28;20043;-92
2022/01/30 11:12:34;;;;;;;31.83;7.97;;;;;;;;;;5096108;28;20032;-91
2022/01/30 11:17:46;;;;;;;31.98;7.50;;;;;;;;;;5077427;28;20138;-90
2022/01/30 11:20:15;;;;;;;33.75;6.60;;;;;;;;;;5065753;28;20063;-88
2022/01/30 11:22:45;;;;;;;27.58;8.10;;;;;;;;;;5079838;28;20055;-91
2022/01/30 11:25:12;;;;;;;27.05;6.95;;;;;;;;;;5078114;28;20503;-85
2022/01/30 11:27:41;;;;;;;30.15;7.18;;;;;;;;;;5065984;28;20040;-94
2022/01/30 11:30:08;;;;;;;30.13;7.65;;;;;;;;;;5095229;28;20047;-87
2022/01/30 11:32:34;;;;;;;26.48;6.32;;;;;;;;;;5084748;28;20535;-86
2022/01/30 11:35:00;;;;;;;25.52;6.15;;;;;;;;;;5061723;28;20753;-90
2022/01/30 11:37:32;;;;;;;32.00;6.90;;;;;;;;;;5064578;28;20036;-88
2022/01/30 11:39:58;;;;;;;26.50;7.03;;;;;;;;;;5077508;28;20118;-92
2022/01/30 11:42:27;;;;;;;27.58;6.65;;;;;;;;;;5106158;28;20043;-88
2022/01/30 11:45:15;;;;;;;27.70;6.90;;;;;;;;;;5057640;28;20085;-92
2022/01/30 11:48:14;;;;;;;26.85;6.80;;;;;;;;;;5088530;28;20317;-92
2022/01/30 11:50:40;;;;;;;28.45;7.45;;;;;;;;;;5042109;28;20040;-92
2022/01/30 11:53:07;;;;;;;28.15;6.63;;;;;;;;;;5086601;28;20537;-93
2022/01/30 11:55:39;;;;;;;27.58;7.97;;;;;;;;;;5106932;28;20036;-92
2022/01/30 11:58:05;;;;;;;28.92;7.15;;;;;;;;;;5090139;28;20040;-91
2022/01/30 12:00:36;;;;;;;30.55;7.47;;;;;;;;;;5074696;28;20245;-88
2022/01/30 12:03:21;;;;;;;32.50;7.18;;;;;;;;;;5108812;28;20040;-91
2022/01/30 12:05:47;;;;;;;28.27;6.78;;;;;;;;;;5109652;28;20044;-94
2022/01/30 12:08:32;;;;;;;29.23;7.30;;;;;;;;;;5111217;27;20422;-94
2022/01/30 12:10:58;;;;;;;;;;;;;;;;;;5092563;28;20039;-90
2022/01/30 12:13:44;;;;;;;28.80;7.35;;;;;;;;;;5106977;28;19916;-93
2022/01/30 12:16:30;;;;;;;28.73;6.70;;;;;;;;;;5065757;28;20047;-93
2022/01/30 12:18:56;;;;;;;34.38;7.97;;;;;;;;;;5109243;27;20083;-92
2022/01/30 12:21:27;;;;;;;30.30;6.72;;;;;;;;;;5091689;28;20131;-93
2022/01/30 12:23:53;;;;;;;31.58;8.05;;;;;;;;;;5073318;28;20402;-90
2022/01/30 12:26:20;;;;;;;34.90;6.85;;;;;;;;;;5092346;28;20032;-93
2022/01/30 12:28:51;;;;;;;28.75;8.45;;;;;;;;;;5075710;28;20111;-87
2022/01/30 12:31:28;;;;;;;27.52;7.28;;;;;;;;;;5082562;28;20031;-90
2022/01/30 12:34:15;;;;;;;31.35;7.28;;;;;;;;;;5070178;28;20575;-88
2022/01/30 12:36:43;;;;;;;28.70;7.68;;;;;;;;;;5079463;28;20054;-91
2022/01/30 12:39:14;;;;;;;30.10;6.80;;;;;;;;;;5064672;28;20037;-90
2022/01/30 12:41:41;;;;;;;29.33;6.43;;;;;;;;;;5063211;28;20044;-92
2022/01/30 12:44:09;;;;;;;24.42;7.03;;;;;;;;;;5082804;28;20637;-94
2022/01/30 12:46:46;;;;;;;26.48;8.07;;;;;;;;;;5070344;28;20031;-90
2022/01/30 12:49:12;;;;;;;26.30;6.60;;;;;;;;;;5065810;28;20036;-87
2022/01/30 12:51:40;;;;;;;32.53;7.35;;;;;;;;;;5082062;28;20096;-93
2022/01/30 12:54:07;;;;;;;28.88;7.30;;;;;;;;;;5070517;28;20515;-92
2022/01/30 12:56:33;;;;;;;29.83;8.13;;;;;;;;;;5098040;28;20507;-92
2022/01/30 12:59:06;;;;;;;29.10;7.38;;;;;;;;;;5082953;28;20100;-89
2022/01/30 13:01:33;;;;;;;32.58;7.50;;;;;;;;;;5090515;28;20077;-90
2022/01/30 13:04:04;;;;;;;28.67;6.93;;;;;;;;;;5056404;28;20115;-90
2022/01/30 13:06:31;;;;;;;26.27;7.25;;;;;;;;;;5089797;28;20032;-90
2022/01/30 13:08:57;;;;;;;28.30;6.05;;;;;;;;;;5107339;28;20052;-90
2022/01/30 13:11:24;;;;;;;32.70;8.77;;;;;;;;;;5107408;28;20044;-87
2022/01/30 13:13:58;;;;;;;26.67;7.10;;;;;;;;;;5107800;28;20044;-86
2022/01/30 13:16:25;;;;;;;29.10;7.60;;;;;;;;;;5128676;27;20036;-92
2022/01/30 13:18:51;;;;;;;26.50;5.97;;;;;;;;;;5126668;27;20590;-92
2022/01/30 13:21:28;;;;;;;27.58;6.80;;;;;;;;;;5128609;27;20105;-94
2022/01/30 13:23:54;;;;;;;29.85;6.78;;;;;;;;;;5111819;28;20051;-93
2022/01/30 13:26:31;;;;;;;29.92;7.43;;;;;;;;;;5128572;27;20525;-90
2022/01/30 13:28:57;;;;;;;27.73;7.05;;;;;;;;;;5126928;27;20377;-90
2022/01/30 13:31:23;;;;;;;26.13;6.50;;;;;;;;;;5103454;28;20047;-86
2022/01/30 13:34:08;;;;;;;23.13;6.55;;;;;;;;;;5109665;27;20046;-88
2022/01/30 13:36:35;;;;;;;20.35;6.50;;;;;;;;;;5087175;28;20039;-88
2022/01/30 13:39:06;;;;;;;27.92;6.13;;;;;;;;;;5083692;28;20094;-92
2022/01/30 13:41:42;;;;;;;24.13;6.28;;;;;;;;;;5086825;28;20054;-94
2022/01/30 13:44:21;;;;;;;28.67;6.68;;;;;;;;;;5102437;28;20156;-90
2022/01/30 13:49:21;;;;;;;24.75;6.50;;;;;;;;;;5096698;28;20467;-89
2022/01/30 13:52:02;;;;;;;25.20;6.25;;;;;;;;;;5100364;28;20532;-87
2022/01/30 13:54:29;;;;;;;26.55;5.75;;;;;;;;;;5080111;28;20428;-94
2022/01/30 13:57:05;;;;;;;24.75;5.70;;;;;;;;;;5091018;28;20492;-89
2022/01/30 13:59:32;;;;;;;24.35;5.80;;;;;;;;;;5074552;28;20121;-93
2022/01/30 14:02:02;;;;;;;20.35;5.80;;;;;;;;;;5057158;28;20040;-87
2022/01/30 14:04:29;;;;;;;24.05;6.25;;;;;;;;;;5092165;28;20411;-88
2022/01/30 14:06:59;;;;;;;23.80;6.55;;;;;;;;;;5091817;28;20044;-89
2022/01/30 14:09:35;;;;;;;28.83;6.72;;;;;;;;;;5091795;28;20359;-94
2022/01/30 14:12:06;;;;;;;22.48;6.45;;;;;;;;;;5099068;28;20050;-94
2022/01/30 14:14:38;;;;;;;25.73;7.10;;;;;;;;;;5103528;28;20047;-94
2022/01/30 14:17:07;;;;;;;26.98;6.38;;;;;;;;;;5092655;28;20044;-92
2022/01/30 14:19:40;;;;;;;21.30;5.75;;;;;;;;;;5091125;28;20439;-90
2022/01/30 14:22:14;;;;;;;27.40;5.93;;;;;;;;;;5074196;28;20040;-92
2022/01/30 14:24:48;;;;;;;23.60;5.65;;;;;;;;;;5110255;28;20443;-94
2022/01/30 14:27:14;;;;;;;24.63;6.35;;;;;;;;;;5094964;28;20157;-92
2022/01/30 14:29:41;;;;;;;24.27;5.78;;;;;;;;;;5095424;28;20378;-95
2022/01/30 14:32:14;;;;;;;27.70;6.25;;;;;;;;;;5082322;28;20039;-94
2022/01/30 14:34:42;;;;;;;24.67;5.40;;;;;;;;;;5082319;28;20023;-90
2022/01/30 14:37:09;;;;;;;23.60;5.57;;;;;;;;;;5089173;28;20036;-87
2022/01/30 14:39:36;;;;;;;19.58;5.13;;;;;;;;;;5095490;28;20425;-90
2022/01/30 14:42:03;;;;;;;24.90;5.68;;;;;;;;;;5090174;28;20162;-88
2022/01/30 14:44:29;;;;;;;24.15;6.43;;;;;;;;;;5064730;28;20556;-93
2022/01/30 14:46:55;;;;;;;25.88;7.15;;;;;;;;;;5110701;28;20351;-94
2022/01/30 14:49:22;;;;;;;28.73;6.65;;;;;;;;;;5082129;28;20036;-95
2022/01/30 14:51:48;;;;;;;20.40;6.25;;;;;;;;;;5100548;28;20380;-90
2022/01/30 14:54:15;;;;;;;20.05;5.25;;;;;;;;;;5112060;28;20032;-93
2022/01/30 14:56:42;;;;;;;22.90;5.78;;;;;;;;;;5096552;28;20122;-92
2022/01/30 14:59:08;;;;;;;23.73;6.15;;;;;;;;;;5082077;28;20036;-96
2022/01/30 15:01:34;;;;;;;24.38;6.00;;;;;;;;;;5096566;28;20036;-94
2022/01/30 15:04:01;;;;;;;28.50;6.15;;;;;;;;;;5111672;28;20036;-91
2022/01/30 15:06:30;;;;;;;29.13;5.85;;;;;;;;;;5108659;28;20038;-94
2022/01/30 15:08:56;;;;;;;27.83;6.07;;;;;;;;;;5109807;28;20078;-94
2022/01/30 15:11:22;;;;;;;23.30;5.85;;;;;;;;;;5095117;28;20051;-91
2022/01/30 15:13:49;;;;;;;31.95;6.93;;;;;;;;;;5074903;28;20041;-94
2022/01/30 15:16:29;;;;;;;28.73;5.93;;;;;;;;;;5144285;27;20047;-94
2022/01/30 15:18:55;;;;;;;25.50;6.78;;;;;;;;;;5083087;28;20419;-93
2022/01/30 15:21:21;;;;;;;23.75;7.03;;;;;;;;;;5112728;28;20037;-95
2022/01/30 15:23:54;;;;;;;30.15;7.20;;;;;;;;;;5063073;28;20040;-93
2022/01/30 15:26:20;;;;;;;23.42;7.55;;;;;;;;;;5132204;27;20040;-96
2022/01/30 15:28:51;;;;;;;27.83;6.95;;;;;;;;;;5085784;28;20031;-91
2022/01/30 15:31:17;;;;;;;21.20;6.47;;;;;;;;;;5109067;28;20165;-96
2022/01/30 15:33:44;;;;;;;32.25;7.55;;;;;;;;;;5110573;28;20032;-94
2022/01/30 15:36:10;;;;;;;21.95;6.07;;;;;;;;;;5101898;28;20127;-93
2022/01/30 15:38:37;;;;;;;24.70;6.32;;;;;;;;;;5091871;28;20040;-93